Time;durP1;ratioP1;P1;durP2;ratioP2;P2;SDS_P1;SDS_P2;PMS_P1;PMS_P2;Temp;Humidity;BMP_temperature;BMP_pressure;BME280_temperature;BME280_humidity;BME280_pressure;Samples;Min_cycle;Max_cycle;Signal;HPM_P1;HPM_P2
2023/05/07 00:00:51;;;;;;;10.33;5.43;;;;;;;;;;5135210;27;20288;-77
2023/05/07 00:03:18;;;;;;;10.30;5.10;;;;;;;;;;5135350;27;20193;-76
2023/05/07 00:05:46;;;;;;;9.93;5.63;;;;;;;;;;5134796;27;20193;-76
2023/05/07 00:08:13;;;;;;;10.27;5.77;;;;;;;;;;5134926;27;20228;-76
2023/05/07 00:10:40;;;;;;;9.63;6.10;;;;;;;;;;5135159;27;20924;-76
2023/05/07 00:13:09;;;;;;;9.93;5.73;;;;;;;;;;5134394;27;20193;-76
2023/05/07 00:15:36;;;;;;;10.03;5.37;;;;;;;;;;5114498;28;20320;-76
2023/05/07 00:18:03;;;;;;;14.00;5.87;;;;;;;;;;5114435;27;20190;-77
2023/05/07 00:20:31;;;;;;;13.73;5.80;;;;;;;;;;5114452;28;20225;-77
2023/05/07 00:22:58;;;;;;;14.80;5.63;;;;;;;;;;5112613;28;20284;-77
2023/05/07 00:25:25;;;;;;;9.17;5.30;;;;;;;;;;5112555;28;20225;-77
2023/05/07 00:27:52;;;;;;;11.83;5.30;;;;;;;;;;5093395;28;20391;-77
2023/05/07 00:30:21;;;;;;;11.33;5.33;;;;;;;;;;5093756;28;20289;-76
2023/05/07 00:32:48;;;;;;;11.33;6.00;;;;;;;;;;5094209;28;20201;-76
2023/05/07 00:35:16;;;;;;;11.47;5.97;;;;;;;;;;5093719;28;20264;-76
2023/05/07 00:37:43;;;;;;;12.17;5.67;;;;;;;;;;5093746;28;20290;-77
2023/05/07 00:40:10;;;;;;;11.97;5.80;;;;;;;;;;5093618;28;20289;-77
2023/05/07 00:42:37;;;;;;;12.67;5.77;;;;;;;;;;5093157;28;20673;-77
2023/05/07 00:45:05;;;;;;;12.03;5.47;;;;;;;;;;5093260;28;20273;-77
2023/05/07 00:47:33;;;;;;;11.63;5.57;;;;;;;;;;5094023;28;20581;-77
2023/05/07 00:50:00;;;;;;;13.93;5.33;;;;;;;;;;5093501;28;20234;-76
2023/05/07 00:52:28;;;;;;;12.20;5.53;;;;;;;;;;5093816;28;20221;-76
2023/05/07 00:54:56;;;;;;;14.07;5.63;;;;;;;;;;5092773;28;20312;-77
2023/05/07 00:57:23;;;;;;;10.77;5.50;;;;;;;;;;5092677;28;20945;-77
2023/05/07 00:59:50;;;;;;;12.43;6.00;;;;;;;;;;5093829;28;20233;-77
2023/05/07 01:02:18;;;;;;;14.90;5.20;;;;;;;;;;5093216;28;20281;-77
2023/05/07 01:04:47;;;;;;;15.83;6.40;;;;;;;;;;5093187;28;20293;-76
2023/05/07 01:07:14;;;;;;;10.30;5.50;;;;;;;;;;5093515;28;20222;-77
2023/05/07 01:09:41;;;;;;;11.20;5.17;;;;;;;;;;5093384;28;20221;-77
2023/05/07 01:12:09;;;;;;;12.33;5.73;;;;;;;;;;5092791;28;20248;-76
2023/05/07 01:14:36;;;;;;;11.17;5.57;;;;;;;;;;5105555;28;20198;-78
2023/05/07 01:17:04;;;;;;;13.83;5.87;;;;;;;;;;5113633;28;20201;-76
2023/05/07 01:19:31;;;;;;;17.10;6.20;;;;;;;;;;5113513;28;20251;-77
2023/05/07 01:22:04;;;;;;;15.33;5.80;;;;;;;;;;5113252;28;20296;-76
2023/05/07 01:24:33;;;;;;;13.43;5.67;;;;;;;;;;5112985;28;20193;-76
2023/05/07 01:27:01;;;;;;;12.13;5.90;;;;;;;;;;5113081;28;20198;-77
2023/05/07 01:29:28;;;;;;;16.47;5.67;;;;;;;;;;5112790;28;20196;-76
2023/05/07 01:31:56;;;;;;;12.53;5.93;;;;;;;;;;5113218;28;20281;-77
2023/05/07 01:34:23;;;;;;;11.63;5.40;;;;;;;;;;5113211;28;20289;-76
2023/05/07 01:36:51;;;;;;;14.70;5.80;;;;;;;;;;5113094;28;20229;-76
2023/05/07 01:39:18;;;;;;;12.90;5.70;;;;;;;;;;5112586;28;20713;-77
2023/05/07 01:41:47;;;;;;;11.17;5.73;;;;;;;;;;5112720;28;20289;-77
2023/05/07 01:44:15;;;;;;;12.33;5.50;;;;;;;;;;5112761;28;20328;-77
2023/05/07 01:46:42;;;;;;;14.83;5.77;;;;;;;;;;5112906;28;20284;-77
2023/05/07 01:49:09;;;;;;;16.10;5.83;;;;;;;;;;5112450;28;20630;-77
2023/05/07 01:51:37;;;;;;;17.20;5.63;;;;;;;;;;5112669;28;20293;-76
2023/05/07 01:54:04;;;;;;;13.80;5.97;;;;;;;;;;5112125;28;20317;-77
2023/05/07 01:56:32;;;;;;;12.97;5.93;;;;;;;;;;5113138;28;20302;-77
2023/05/07 01:59:01;;;;;;;10.57;5.57;;;;;;;;;;5112853;28;20285;-76
2023/05/07 02:01:29;;;;;;;14.30;5.47;;;;;;;;;;5112526;28;20198;-77
2023/05/07 02:03:56;;;;;;;9.83;5.20;;;;;;;;;;5112274;28;20239;-78
2023/05/07 02:06:23;;;;;;;11.20;5.20;;;;;;;;;;5112152;28;20284;-76
2023/05/07 02:08:50;;;;;;;14.30;5.50;;;;;;;;;;5111573;28;20296;-77
2023/05/07 02:11:17;;;;;;;14.30;5.60;;;;;;;;;;5112511;27;20197;-77
2023/05/07 02:13:44;;;;;;;10.60;5.33;;;;;;;;;;5112187;28;20685;-76
2023/05/07 02:16:14;;;;;;;17.03;6.07;;;;;;;;;;5112374;28;20222;-76
2023/05/07 02:18:41;;;;;;;16.63;5.97;;;;;;;;;;5112657;28;20198;-77
2023/05/07 02:21:08;;;;;;;12.50;5.57;;;;;;;;;;5112254;28;20293;-76
2023/05/07 02:23:35;;;;;;;17.43;5.57;;;;;;;;;;5103545;28;20289;-75
2023/05/07 02:26:02;;;;;;;16.47;5.70;;;;;;;;;;5100154;28;20585;-76
2023/05/07 02:28:30;;;;;;;17.83;6.00;;;;;;;;;;5092199;28;20229;-76
2023/05/07 02:30:58;;;;;;;12.83;5.47;;;;;;;;;;5091443;28;20294;-77
2023/05/07 02:33:27;;;;;;;13.93;6.13;;;;;;;;;;5091549;28;20194;-77
2023/05/07 02:35:54;;;;;;;12.27;5.40;;;;;;;;;;5091632;28;20230;-77
2023/05/07 02:38:21;;;;;;;11.93;6.03;;;;;;;;;;5091515;28;20224;-77
2023/05/07 02:40:48;;;;;;;14.17;5.57;;;;;;;;;;5091443;28;20281;-77
2023/05/07 02:43:15;;;;;;;11.50;5.60;;;;;;;;;;5091167;28;20325;-78
2023/05/07 02:45:43;;;;;;;17.73;5.70;;;;;;;;;;5091518;28;20289;-76
2023/05/07 02:48:10;;;;;;;16.27;5.60;;;;;;;;;;5091045;28;20206;-77
2023/05/07 02:50:39;;;;;;;12.77;5.60;;;;;;;;;;5091767;28;20616;-76
2023/05/07 02:53:06;;;;;;;9.70;5.87;;;;;;;;;;5091012;28;20231;-76
2023/05/07 02:55:33;;;;;;;15.77;5.17;;;;;;;;;;5091298;28;20233;-76
2023/05/07 02:58:00;;;;;;;11.00;5.33;;;;;;;;;;5091300;28;20292;-77
2023/05/07 03:00:27;;;;;;;16.63;6.10;;;;;;;;;;5091245;28;20292;-76
2023/05/07 03:02:55;;;;;;;13.70;6.10;;;;;;;;;;5091420;28;20289;-76
2023/05/07 03:05:23;;;;;;;15.93;5.63;;;;;;;;;;5090905;28;20195;-76
2023/05/07 03:07:51;;;;;;;15.00;6.40;;;;;;;;;;5091058;28;20655;-77
2023/05/07 03:10:18;;;;;;;11.43;5.33;;;;;;;;;;5091312;28;20278;-77
2023/05/07 03:12:45;;;;;;;12.20;5.43;;;;;;;;;;5091182;28;20289;-76
2023/05/07 03:15:13;;;;;;;14.30;5.93;;;;;;;;;;5108609;28;20284;-76
2023/05/07 03:17:40;;;;;;;11.73;6.00;;;;;;;;;;5113766;28;20603;-77
2023/05/07 03:20:09;;;;;;;16.30;5.90;;;;;;;;;;5115720;27;20221;-76
2023/05/07 03:22:36;;;;;;;15.57;5.97;;;;;;;;;;5115719;28;20198;-76
2023/05/07 03:25:05;;;;;;;16.03;5.60;;;;;;;;;;5115346;28;20763;-77
2023/05/07 03:27:32;;;;;;;14.23;5.60;;;;;;;;;;5115663;28;20201;-77
2023/05/07 03:29:59;;;;;;;15.27;5.60;;;;;;;;;;5115787;28;20232;-77
2023/05/07 03:32:26;;;;;;;17.77;6.20;;;;;;;;;;5115544;28;20201;-77
2023/05/07 03:34:54;;;;;;;13.87;5.67;;;;;;;;;;5115499;28;20288;-77
2023/05/07 03:37:21;;;;;;;15.23;5.73;;;;;;;;;;5115236;28;20312;-77
2023/05/07 03:39:48;;;;;;;16.37;6.00;;;;;;;;;;5115145;28;20201;-77
2023/05/07 03:42:17;;;;;;;14.13;6.47;;;;;;;;;;5114915;28;20664;-76
2023/05/07 03:44:44;;;;;;;12.37;5.83;;;;;;;;;;5114923;28;20315;-76
2023/05/07 03:47:13;;;;;;;15.03;5.93;;;;;;;;;;5115361;28;20224;-77
2023/05/07 03:49:40;;;;;;;18.73;5.87;;;;;;;;;;5114613;28;20218;-76
2023/05/07 03:52:07;;;;;;;21.43;6.70;;;;;;;;;;5114784;28;20239;-77
2023/05/07 03:54:34;;;;;;;14.13;6.23;;;;;;;;;;5115012;28;20288;-77
2023/05/07 03:57:01;;;;;;;15.50;6.50;;;;;;;;;;5114909;28;20772;-76
2023/05/07 03:59:30;;;;;;;19.27;6.13;;;;;;;;;;5114896;28;20190;-76
2023/05/07 04:01:57;;;;;;;20.07;6.13;;;;;;;;;;5114698;28;20198;-77
2023/05/07 04:04:24;;;;;;;16.33;6.47;;;;;;;;;;5114689;28;20673;-77
2023/05/07 04:06:51;;;;;;;19.00;6.23;;;;;;;;;;5115097;28;20201;-77
2023/05/07 04:09:19;;;;;;;16.47;5.90;;;;;;;;;;5114751;28;20241;-77
2023/05/07 04:11:46;;;;;;;17.63;6.27;;;;;;;;;;5114701;28;20277;-75
2023/05/07 04:14:13;;;;;;;12.17;5.77;;;;;;;;;;5114500;28;20320;-75
2023/05/07 04:16:41;;;;;;;15.50;6.10;;;;;;;;;;5114790;28;20611;-76
2023/05/07 04:19:09;;;;;;;15.40;6.33;;;;;;;;;;5113866;28;20284;-76
2023/05/07 04:21:36;;;;;;;13.33;5.70;;;;;;;;;;5114854;28;20635;-75
2023/05/07 04:24:04;;;;;;;16.87;5.83;;;;;;;;;;5114532;28;20222;-75
2023/05/07 04:26:32;;;;;;;12.93;5.87;;;;;;;;;;5114430;27;20709;-75
2023/05/07 04:28:59;;;;;;;21.77;6.60;;;;;;;;;;5113667;27;20190;-75
2023/05/07 04:31:27;;;;;;;13.67;6.00;;;;;;;;;;5114227;28;20532;-75
2023/05/07 04:33:55;;;;;;;16.03;5.77;;;;;;;;;;5113851;28;20276;-75
2023/05/07 04:36:22;;;;;;;17.13;6.57;;;;;;;;;;5114638;28;20248;-75
2023/05/07 04:38:50;;;;;;;19.17;6.37;;;;;;;;;;5114242;28;20212;-75
2023/05/07 04:41:17;;;;;;;17.90;6.37;;;;;;;;;;5114033;28;20205;-75
2023/05/07 04:43:44;;;;;;;20.53;6.60;;;;;;;;;;5113858;28;20286;-75
2023/05/07 04:46:11;;;;;;;19.90;6.77;;;;;;;;;;5113765;28;20774;-74
2023/05/07 04:48:38;;;;;;;15.60;6.37;;;;;;;;;;5113747;28;20280;-75
2023/05/07 04:51:07;;;;;;;21.43;7.23;;;;;;;;;;5114628;28;20228;-76
2023/05/07 04:53:34;;;;;;;19.83;7.20;;;;;;;;;;5113726;28;20198;-75
2023/05/07 04:56:02;;;;;;;15.00;7.03;;;;;;;;;;5113559;28;20569;-75
2023/05/07 04:58:31;;;;;;;17.13;6.83;;;;;;;;;;5113829;28;20221;-75
2023/05/07 05:00:58;;;;;;;15.67;6.93;;;;;;;;;;5113894;28;20189;-74
2023/05/07 05:03:25;;;;;;;16.47;7.07;;;;;;;;;;5106613;28;20749;-75
2023/05/07 05:05:53;;;;;;;14.57;6.57;;;;;;;;;;5113993;28;20572;-76
2023/05/07 05:08:22;;;;;;;18.03;6.50;;;;;;;;;;5113677;28;20209;-75
2023/05/07 05:10:49;;;;;;;16.70;6.50;;;;;;;;;;5113464;28;20296;-75
2023/05/07 05:13:16;;;;;;;15.17;6.13;;;;;;;;;;5113141;28;20193;-76
2023/05/07 05:15:44;;;;;;;14.67;6.03;;;;;;;;;;5113421;28;20280;-75
2023/05/07 05:18:11;;;;;;;11.57;6.07;;;;;;;;;;5113099;28;20372;-74
2023/05/07 05:20:38;;;;;;;11.33;6.00;;;;;;;;;;5094161;28;20664;-75
2023/05/07 05:23:05;;;;;;;11.70;5.80;;;;;;;;;;5093353;28;20224;-74
2023/05/07 05:25:34;;;;;;;9.67;5.30;;;;;;;;;;5092603;28;20195;-75
2023/05/07 05:28:01;;;;;;;11.27;6.10;;;;;;;;;;5106393;28;20285;-75
2023/05/07 05:30:28;;;;;;;13.50;6.17;;;;;;;;;;5113301;27;20200;-75
2023/05/07 05:32:55;;;;;;;9.87;5.70;;;;;;;;;;5113047;28;20313;-75
2023/05/07 05:35:22;;;;;;;9.73;5.90;;;;;;;;;;5113011;28;20284;-75
2023/05/07 05:37:50;;;;;;;11.17;5.60;;;;;;;;;;5112947;28;20264;-74
2023/05/07 05:40:17;;;;;;;14.37;5.70;;;;;;;;;;5113301;28;20220;-75
2023/05/07 05:42:45;;;;;;;11.17;5.23;;;;;;;;;;5112924;28;20197;-75
2023/05/07 05:45:12;;;;;;;7.97;5.23;;;;;;;;;;5112627;28;20797;-75
2023/05/07 05:47:40;;;;;;;8.20;4.80;;;;;;;;;;5112319;28;20627;-75
2023/05/07 05:50:07;;;;;;;11.30;4.90;;;;;;;;;;5112540;28;20658;-76
2023/05/07 05:52:35;;;;;;;9.80;5.33;;;;;;;;;;5113095;28;20284;-75
2023/05/07 05:55:02;;;;;;;8.10;5.33;;;;;;;;;;5113221;28;20288;-74
2023/05/07 05:57:29;;;;;;;9.77;5.10;;;;;;;;;;5112432;28;20333;-74
2023/05/07 05:59:58;;;;;;;9.17;4.80;;;;;;;;;;5112153;28;20229;-75
2023/05/07 06:02:25;;;;;;;12.10;5.40;;;;;;;;;;5112495;28;20201;-75
2023/05/07 06:04:52;;;;;;;8.83;4.93;;;;;;;;;;5112507;28;20282;-76
2023/05/07 06:07:19;;;;;;;10.13;4.90;;;;;;;;;;5111874;28;20855;-76
2023/05/07 06:09:46;;;;;;;7.87;4.30;;;;;;;;;;5112698;28;20301;-75
2023/05/07 06:12:14;;;;;;;6.37;4.20;;;;;;;;;;5112623;28;20289;-75
2023/05/07 06:14:41;;;;;;;6.57;4.10;;;;;;;;;;5111623;28;20236;-75
2023/05/07 06:17:09;;;;;;;5.30;3.80;;;;;;;;;;5112395;28;20230;-75
2023/05/07 06:19:37;;;;;;;4.57;2.80;;;;;;;;;;5111953;28;20294;-75
2023/05/07 06:22:04;;;;;;;5.23;3.17;;;;;;;;;;5112406;28;20269;-75
2023/05/07 06:24:31;;;;;;;5.27;3.60;;;;;;;;;;5112122;28;20288;-75
2023/05/07 06:26:59;;;;;;;4.03;3.33;;;;;;;;;;5112093;28;20745;-75
2023/05/07 06:29:26;;;;;;;4.63;3.53;;;;;;;;;;5111768;28;20611;-75
2023/05/07 06:31:53;;;;;;;8.40;4.20;;;;;;;;;;5111823;28;20662;-76
2023/05/07 06:34:22;;;;;;;5.47;4.30;;;;;;;;;;5111967;28;20193;-76
2023/05/07 06:36:49;;;;;;;5.47;4.00;;;;;;;;;;5112005;28;20235;-76
2023/05/07 06:39:16;;;;;;;4.70;3.73;;;;;;;;;;5112007;28;20204;-75
2023/05/07 06:41:43;;;;;;;5.87;3.50;;;;;;;;;;5112321;28;20285;-74
2023/05/07 06:44:10;;;;;;;5.33;2.90;;;;;;;;;;5111160;28;20294;-75
2023/05/07 06:46:38;;;;;;;3.40;2.80;;;;;;;;;;5112174;28;20272;-76
2023/05/07 06:49:05;;;;;;;3.17;2.20;;;;;;;;;;5111789;28;20255;-76
2023/05/07 06:51:33;;;;;;;4.23;2.20;;;;;;;;;;5111162;28;20273;-74
2023/05/07 06:54:00;;;;;;;2.97;1.90;;;;;;;;;;5111890;28;20284;-75
2023/05/07 06:56:28;;;;;;;2.83;1.77;;;;;;;;;;5111845;28;20292;-76
2023/05/07 06:58:55;;;;;;;4.63;2.00;;;;;;;;;;5111423;28;20232;-76
2023/05/07 07:01:22;;;;;;;3.80;2.27;;;;;;;;;;5111649;28;20221;-75
2023/05/07 07:03:51;;;;;;;3.33;2.10;;;;;;;;;;5111378;28;20296;-75
2023/05/07 07:06:18;;;;;;;3.17;2.00;;;;;;;;;;5111952;28;20198;-75
2023/05/07 07:08:46;;;;;;;2.37;1.90;;;;;;;;;;5111409;28;20689;-76
2023/05/07 07:11:13;;;;;;;3.07;1.90;;;;;;;;;;5112158;28;20251;-77
2023/05/07 07:13:41;;;;;;;3.60;2.30;;;;;;;;;;5110791;28;20281;-76
2023/05/07 07:16:08;;;;;;;3.23;2.67;;;;;;;;;;5111159;28;20301;-75
2023/05/07 07:18:35;;;;;;;3.00;2.40;;;;;;;;;;5112008;28;20722;-76
2023/05/07 07:21:02;;;;;;;2.97;2.03;;;;;;;;;;5111510;28;20227;-77
2023/05/07 07:23:30;;;;;;;3.63;2.30;;;;;;;;;;5111240;28;20284;-76
2023/05/07 07:25:58;;;;;;;3.63;2.50;;;;;;;;;;5111389;28;20198;-76
2023/05/07 07:28:25;;;;;;;3.37;2.37;;;;;;;;;;5111053;28;20770;-76
2023/05/07 07:30:52;;;;;;;2.77;2.43;;;;;;;;;;5111734;28;20260;-76
2023/05/07 07:33:20;;;;;;;2.70;2.27;;;;;;;;;;5111478;28;20218;-77
2023/05/07 07:35:47;;;;;;;3.43;2.60;;;;;;;;;;5111306;28;20217;-76
2023/05/07 07:38:14;;;;;;;4.93;2.77;;;;;;;;;;5111552;28;20249;-77
2023/05/07 07:40:41;;;;;;;4.27;2.63;;;;;;;;;;5111511;28;20224;-76
2023/05/07 07:43:10;;;;;;;3.00;2.40;;;;;;;;;;5110396;28;20194;-76
2023/05/07 07:45:37;;;;;;;4.53;3.60;;;;;;;;;;5111194;28;20289;-76
2023/05/07 07:48:04;;;;;;;5.17;3.70;;;;;;;;;;5111108;28;20289;-77
2023/05/07 07:50:31;;;;;;;6.77;4.40;;;;;;;;;;5111224;28;20204;-74
2023/05/07 07:52:59;;;;;;;7.25;5.28;;;;;;;;;;5111524;28;20190;-77
2023/05/07 07:55:26;;;;;;;7.37;5.40;;;;;;;;;;5111057;28;20281;-77
2023/05/07 07:57:54;;;;;;;7.57;5.50;;;;;;;;;;5111017;28;20226;-76
2023/05/07 08:00:23;;;;;;;9.43;7.53;;;;;;;;;;5111066;28;20194;-78
2023/05/07 08:02:50;;;;;;;8.90;7.40;;;;;;;;;;5110354;28;20197;-77
2023/05/07 08:05:17;;;;;;;9.53;8.10;;;;;;;;;;5112757;28;20293;-77
2023/05/07 08:07:44;;;;;;;10.17;8.30;;;;;;;;;;5114239;28;20704;-78
2023/05/07 08:10:11;;;;;;;11.67;8.00;;;;;;;;;;5115169;28;20253;-78
2023/05/07 08:12:39;;;;;;;10.33;8.10;;;;;;;;;;5114059;28;20280;-78
2023/05/07 08:15:06;;;;;;;10.43;8.50;;;;;;;;;;5114414;28;20704;-78
2023/05/07 08:17:35;;;;;;;10.07;8.33;;;;;;;;;;5114602;28;20249;-77
2023/05/07 08:20:03;;;;;;;11.67;8.23;;;;;;;;;;5114907;27;20198;-78
2023/05/07 08:22:30;;;;;;;12.50;8.40;;;;;;;;;;5114466;28;20194;-77
2023/05/07 08:24:57;;;;;;;11.17;8.20;;;;;;;;;;5114106;28;20352;-79
2023/05/07 08:27:24;;;;;;;10.37;8.47;;;;;;;;;;5114044;28;20301;-77
2023/05/07 08:29:52;;;;;;;11.53;8.50;;;;;;;;;;5114803;28;20224;-77
2023/05/07 08:32:19;;;;;;;8.40;7.15;;;;;;;;;;5114184;28;20208;-77
2023/05/07 08:34:47;;;;;;;7.57;6.20;;;;;;;;;;5107816;28;20229;-77
2023/05/07 08:37:14;;;;;;;6.72;5.85;;;;;;;;;;5111837;28;20232;-77
2023/05/07 08:39:42;;;;;;;6.43;5.72;;;;;;;;;;5106913;28;20198;-78
2023/05/07 08:42:11;;;;;;;7.15;5.45;;;;;;;;;;5106105;28;20221;-78
2023/05/07 08:44:39;;;;;;;5.80;5.05;;;;;;;;;;5100896;28;20257;-78
2023/05/07 08:47:08;;;;;;;6.00;4.78;;;;;;;;;;5104527;28;20286;-77
2023/05/07 08:49:35;;;;;;;5.93;4.70;;;;;;;;;;5093594;28;20233;-78
2023/05/07 08:52:04;;;;;;;7.07;4.82;;;;;;;;;;5093541;28;20290;-81
2023/05/07 08:54:32;;;;;;;5.30;4.78;;;;;;;;;;5093302;28;20202;-79
2023/05/07 08:56:59;;;;;;;6.03;4.43;;;;;;;;;;5097250;27;20578;-77
2023/05/07 08:59:27;;;;;;;5.30;4.05;;;;;;;;;;5098703;28;20259;-79
2023/05/07 09:01:54;;;;;;;6.47;3.70;;;;;;;;;;5113458;28;20190;-78
2023/05/07 09:04:22;;;;;;;4.93;3.80;;;;;;;;;;5111270;28;20208;-78
2023/05/07 09:06:51;;;;;;;4.50;3.65;;;;;;;;;;5109358;28;20624;-81
2023/05/07 09:09:19;;;;;;;5.03;3.78;;;;;;;;;;5115487;27;20190;-79
2023/05/07 09:11:47;;;;;;;4.35;3.78;;;;;;;;;;5110805;27;20273;-81
2023/05/07 09:14:14;;;;;;;3.67;3.28;;;;;;;;;;5113596;27;20198;-81
2023/05/07 09:16:41;;;;;;;4.30;3.33;;;;;;;;;;5108679;27;20189;-86
2023/05/07 09:19:08;;;;;;;3.50;3.20;;;;;;;;;;5108737;27;20237;-85
2023/05/07 09:21:36;;;;;;;4.32;3.35;;;;;;;;;;5112001;27;20221;-83
2023/05/07 09:24:04;;;;;;;3.63;3.25;;;;;;;;;;5113544;27;20233;-83
2023/05/07 09:26:33;;;;;;;3.22;2.90;;;;;;;;;;5111046;28;20560;-84
2023/05/07 09:29:00;;;;;;;3.33;2.85;;;;;;;;;;5113441;28;20221;-85
2023/05/07 09:31:28;;;;;;;3.42;2.85;;;;;;;;;;5102294;28;20285;-85
2023/05/07 09:33:56;;;;;;;3.00;2.75;;;;;;;;;;5110134;28;20194;-84
2023/05/07 09:36:24;;;;;;;3.30;3.00;;;;;;;;;;5109921;28;20200;-83
2023/05/07 09:38:51;;;;;;;3.03;2.80;;;;;;;;;;5122529;27;20708;-85
2023/05/07 09:41:19;;;;;;;3.47;3.17;;;;;;;;;;5117478;27;20284;-85
2023/05/07 09:43:48;;;;;;;3.75;3.10;;;;;;;;;;5112617;28;20680;-85
2023/05/07 09:46:16;;;;;;;4.53;2.97;;;;;;;;;;5114137;27;20225;-84
2023/05/07 09:48:44;;;;;;;3.50;3.20;;;;;;;;;;5117481;27;20243;-84
2023/05/07 09:51:19;;;;;;;3.88;3.30;;;;;;;;;;5106338;28;20240;-85
2023/05/07 09:53:47;;;;;;;4.18;3.42;;;;;;;;;;5112136;28;20221;-85
2023/05/07 09:56:16;;;;;;;4.35;3.05;;;;;;;;;;5106010;27;20271;-85
2023/05/07 09:58:44;;;;;;;4.90;3.20;;;;;;;;;;5113094;28;20225;-85
2023/05/07 10:01:13;;;;;;;4.28;2.95;;;;;;;;;;5108053;27;20199;-84
2023/05/07 10:03:42;;;;;;;3.60;2.90;;;;;;;;;;5110502;27;20259;-87
2023/05/07 10:06:10;;;;;;;3.13;2.60;;;;;;;;;;5121262;27;20193;-85
2023/05/07 10:08:37;;;;;;;2.80;2.50;;;;;;;;;;5117767;27;20196;-87
2023/05/07 10:11:05;;;;;;;2.88;2.25;;;;;;;;;;5122547;27;20190;-84
2023/05/07 10:13:34;;;;;;;2.60;2.25;;;;;;;;;;5115845;27;20564;-85
2023/05/07 10:16:02;;;;;;;2.20;1.90;;;;;;;;;;5117992;27;20547;-83
2023/05/07 10:18:32;;;;;;;2.03;1.70;;;;;;;;;;5127749;27;20262;-84
2023/05/07 10:21:03;;;;;;;3.30;2.13;;;;;;;;;;5118162;27;20538;-85
2023/05/07 10:23:31;;;;;;;1.75;1.60;;;;;;;;;;5104205;28;20202;-85
2023/05/07 10:25:58;;;;;;;2.88;1.70;;;;;;;;;;5111989;28;20281;-84
2023/05/07 10:28:26;;;;;;;1.65;1.30;;;;;;;;;;5110741;28;20246;-85
2023/05/07 10:31:02;;;;;;;2.17;1.45;;;;;;;;;;5112814;28;20289;-87
2023/05/07 10:33:31;;;;;;;1.52;1.42;;;;;;;;;;5111182;28;20674;-84
2023/05/07 10:36:00;;;;;;;3.45;2.00;;;;;;;;;;5112200;28;20686;-84
2023/05/07 10:38:28;;;;;;;1.75;1.50;;;;;;;;;;5114297;28;20235;-87
2023/05/07 10:40:55;;;;;;;3.05;2.00;;;;;;;;;;5102369;28;20206;-84
2023/05/07 10:43:23;;;;;;;2.20;2.00;;;;;;;;;;5091714;28;20284;-86
2023/05/07 10:46:08;;;;;;;2.35;1.73;;;;;;;;;;5097199;28;20248;-85
2023/05/07 10:48:58;;;;;;;2.60;1.50;;;;;;;;;;5104755;28;20231;-83
2023/05/07 10:51:25;;;;;;;3.65;2.30;;;;;;;;;;5096884;28;20586;-83
2023/05/07 10:54:19;;;;;;;2.00;1.80;;;;;;;;;;5109298;28;20312;-83
2023/05/07 10:56:47;;;;;;;2.33;1.63;;;;;;;;;;5111714;28;20229;-84
2023/05/07 10:59:34;;;;;;;3.78;1.63;;;;;;;;;;5111645;28;20232;-84
2023/05/07 11:02:03;;;;;;;2.10;1.90;;;;;;;;;;5111382;28;20296;-83
2023/05/07 11:04:34;;;;;;;2.30;1.73;;;;;;;;;;5111733;28;20276;-83
2023/05/07 11:07:20;;;;;;;3.83;2.03;;;;;;;;;;5111004;28;20214;-84
2023/05/07 11:10:05;;;;;;;2.38;1.88;;;;;;;;;;5110449;28;20284;-83
2023/05/07 11:13:05;;;;;;;2.00;1.80;;;;;;;;;;5091351;28;20194;-85
2023/05/07 11:15:39;;;;;;;3.25;2.80;;;;;;;;;;5107177;28;20210;-82
2023/05/07 11:18:07;;;;;;;3.80;2.90;;;;;;;;;;5111423;28;20276;-82
2023/05/07 11:21:00;;;;;;;3.90;3.15;;;;;;;;;;5110452;28;20270;-80
2023/05/07 11:23:47;;;;;;;3.28;2.40;;;;;;;;;;5111514;28;20292;-83
2023/05/07 11:26:15;;;;;;;3.67;2.67;;;;;;;;;;5111577;28;20215;-86
2023/05/07 11:28:43;;;;;;;3.22;2.63;;;;;;;;;;5099682;28;20205;-81
2023/05/07 11:31:11;;;;;;;4.38;3.17;;;;;;;;;;5090601;28;20302;-81
2023/05/07 11:33:39;;;;;;;3.60;3.00;;;;;;;;;;5091816;28;20202;-83
2023/05/07 11:36:10;;;;;;;3.90;3.03;;;;;;;;;;5111383;28;20198;-83
2023/05/07 11:38:38;;;;;;;4.32;3.78;;;;;;;;;;5113345;28;20228;-83
2023/05/07 11:41:05;;;;;;;3.15;2.75;;;;;;;;;;5114673;28;20250;-83
2023/05/07 11:43:33;;;;;;;3.63;3.20;;;;;;;;;;5115367;28;20307;-81
2023/05/07 11:46:07;;;;;;;8.68;6.65;;;;;;;;;;5114952;28;20701;-83
2023/05/07 11:48:34;;;;;;;3.05;2.70;;;;;;;;;;5095110;28;20212;-83
2023/05/07 11:51:02;;;;;;;2.95;2.67;;;;;;;;;;5094524;28;20294;-82
2023/05/07 11:53:37;;;;;;;2.45;2.20;;;;;;;;;;5094887;28;20225;-84
2023/05/07 11:56:08;;;;;;;3.58;2.45;;;;;;;;;;5113348;28;20669;-84
2023/05/07 11:58:36;;;;;;;3.22;2.65;;;;;;;;;;5102122;28;20263;-82
2023/05/07 12:01:03;;;;;;;4.68;3.20;;;;;;;;;;5094835;28;20200;-83
2023/05/07 12:03:30;;;;;;;3.25;2.95;;;;;;;;;;5094212;28;20293;-83
2023/05/07 12:05:58;;;;;;;4.63;3.90;;;;;;;;;;5094980;28;20281;-81
2023/05/07 12:08:25;;;;;;;4.55;3.53;;;;;;;;;;5094830;28;20195;-81
2023/05/07 12:10:54;;;;;;;4.70;3.42;;;;;;;;;;5094442;28;20229;-81
2023/05/07 12:13:22;;;;;;;4.57;3.25;;;;;;;;;;5096425;28;20689;-81
2023/05/07 12:15:52;;;;;;;5.88;3.90;;;;;;;;;;5111269;28;20208;-81
2023/05/07 12:18:19;;;;;;;4.00;3.50;;;;;;;;;;5107912;28;20696;-81
2023/05/07 12:20:47;;;;;;;3.50;3.10;;;;;;;;;;5113042;28;20213;-81
2023/05/07 12:23:14;;;;;;;5.15;3.63;;;;;;;;;;5094217;28;20691;-81
2023/05/07 12:25:46;;;;;;;4.53;3.00;;;;;;;;;;5094174;28;20662;-83
2023/05/07 12:28:16;;;;;;;5.97;3.75;;;;;;;;;;5093688;28;20255;-82
2023/05/07 12:30:44;;;;;;;4.60;3.50;;;;;;;;;;5094164;28;20553;-82
2023/05/07 12:33:11;;;;;;;5.60;4.68;;;;;;;;;;5093244;28;20670;-81
2023/05/07 12:35:40;;;;;;;4.60;3.95;;;;;;;;;;5097036;28;20636;-82
2023/05/07 12:38:09;;;;;;;3.20;2.70;;;;;;;;;;5105666;28;20195;-82
2023/05/07 12:40:37;;;;;;;3.53;2.50;;;;;;;;;;5096048;28;20257;-82
2023/05/07 12:43:04;;;;;;;4.88;2.80;;;;;;;;;;5093416;28;20293;-82
2023/05/07 12:45:33;;;;;;;4.40;2.65;;;;;;;;;;5106069;28;20221;-89
2023/05/07 12:48:03;;;;;;;4.35;3.10;;;;;;;;;;5115975;28;20635;-87
2023/05/07 12:50:33;;;;;;;4.50;3.50;;;;;;;;;;5114601;28;20206;-88
2023/05/07 12:53:00;;;;;;;4.32;3.90;;;;;;;;;;5115793;28;20194;-90
2023/05/07 12:55:27;;;;;;;6.13;3.40;;;;;;;;;;5115576;28;20280;-88
2023/05/07 12:57:57;;;;;;;5.65;3.55;;;;;;;;;;5114192;28;20634;-87
2023/05/07 13:00:39;;;;;;;4.03;3.10;;;;;;;;;;5115457;28;20257;-86
2023/05/07 13:03:06;;;;;;;4.68;2.58;;;;;;;;;;5111622;28;20196;-83
2023/05/07 13:05:34;;;;;;;4.60;2.67;;;;;;;;;;5114620;28;20209;-89
2023/05/07 13:08:02;;;;;;;3.35;2.53;;;;;;;;;;5114781;28;20670;-88
2023/05/07 13:10:29;;;;;;;4.47;2.70;;;;;;;;;;5113735;28;20225;-85
2023/05/07 13:12:57;;;;;;;2.95;2.33;;;;;;;;;;5113956;28;20223;-87
2023/05/07 13:15:24;;;;;;;4.00;2.25;;;;;;;;;;5113155;28;20240;-85
2023/05/07 13:17:52;;;;;;;4.45;2.67;;;;;;;;;;5111376;28;20205;-85
2023/05/07 13:20:20;;;;;;;4.55;2.85;;;;;;;;;;5113298;28;20308;-86
2023/05/07 13:22:47;;;;;;;4.53;2.75;;;;;;;;;;5113557;28;20236;-83
2023/05/07 13:25:15;;;;;;;3.30;2.50;;;;;;;;;;5114408;28;20202;-88
2023/05/07 13:27:42;;;;;;;4.60;2.67;;;;;;;;;;5113870;27;20194;-86
2023/05/07 13:30:09;;;;;;;3.28;2.20;;;;;;;;;;5113332;28;20605;-87
2023/05/07 13:32:37;;;;;;;4.72;2.40;;;;;;;;;;5114958;28;20281;-90
2023/05/07 13:35:06;;;;;;;3.67;2.40;;;;;;;;;;5115072;28;20190;-87
2023/05/07 13:37:33;;;;;;;3.95;2.28;;;;;;;;;;5116119;28;20227;-91
2023/05/07 13:40:00;;;;;;;4.43;2.70;;;;;;;;;;5113967;28;20301;-85
2023/05/07 13:42:27;;;;;;;3.95;2.20;;;;;;;;;;5116511;27;20202;-87
2023/05/07 13:44:55;;;;;;;3.42;2.20;;;;;;;;;;5103819;28;20265;-86
2023/05/07 13:47:22;;;;;;;3.55;2.20;;;;;;;;;;5114106;28;20233;-88
2023/05/07 13:49:50;;;;;;;4.00;2.38;;;;;;;;;;5113412;28;20256;-85
2023/05/07 13:52:18;;;;;;;3.40;2.35;;;;;;;;;;5109988;28;20876;-86
2023/05/07 13:54:46;;;;;;;4.63;2.60;;;;;;;;;;5113003;28;20228;-86
2023/05/07 13:57:13;;;;;;;3.92;2.58;;;;;;;;;;5111266;28;20254;-87
2023/05/07 13:59:40;;;;;;;3.28;2.20;;;;;;;;;;5106639;28;20233;-86
2023/05/07 14:02:08;;;;;;;4.22;2.38;;;;;;;;;;5109934;28;20221;-85
2023/05/07 14:04:38;;;;;;;2.75;2.20;;;;;;;;;;5110501;28;20243;-85
2023/05/07 14:07:05;;;;;;;3.65;2.33;;;;;;;;;;5106641;28;20561;-86
2023/05/07 14:09:36;;;;;;;3.47;2.10;;;;;;;;;;5095210;28;20217;-84
2023/05/07 14:12:03;;;;;;;4.53;2.38;;;;;;;;;;5095958;28;20570;-88
2023/05/07 14:14:30;;;;;;;4.40;2.00;;;;;;;;;;5106317;28;20729;-84
2023/05/07 14:16:58;;;;;;;4.63;2.17;;;;;;;;;;5112076;28;20197;-85
2023/05/07 14:19:26;;;;;;;2.67;1.67;;;;;;;;;;5111308;28;20681;-86
2023/05/07 14:21:55;;;;;;;4.43;2.15;;;;;;;;;;5110503;28;20648;-84
2023/05/07 14:24:22;;;;;;;3.58;2.20;;;;;;;;;;5112558;28;20198;-85
2023/05/07 14:26:51;;;;;;;3.50;1.98;;;;;;;;;;5108187;28;20653;-88
2023/05/07 14:29:18;;;;;;;4.07;2.55;;;;;;;;;;5108490;28;20198;-84
2023/05/07 14:31:45;;;;;;;4.40;2.03;;;;;;;;;;5112177;27;20304;-84
2023/05/07 14:34:13;;;;;;;3.60;2.10;;;;;;;;;;5108671;28;20217;-84
2023/05/07 14:36:40;;;;;;;3.92;2.13;;;;;;;;;;5106309;28;20292;-85
2023/05/07 14:39:07;;;;;;;5.13;2.25;;;;;;;;;;5112228;28;20670;-86
2023/05/07 14:41:35;;;;;;;5.45;2.30;;;;;;;;;;5108349;28;20267;-84
2023/05/07 14:44:03;;;;;;;5.65;2.10;;;;;;;;;;5107502;28;20221;-83